createdAt,value
2023-05-21T00:00:49.256Z,96.07
2023-05-21T00:01:49.261Z,95.97
2023-05-21T00:02:49.455Z,96.07
2023-05-21T00:03:49.438Z,95.97
2023-05-21T00:04:49.217Z,95.66
2023-05-21T00:05:49.280Z,95.86
2023-05-21T00:06:49.187Z,95.40
2023-05-21T00:07:49.158Z,95.00
2023-05-21T00:08:47.236Z,95.20
2023-05-21T00:09:49.143Z,95.36
2023-05-21T00:10:49.148Z,95.46
2023-05-21T00:11:49.124Z,95.30
2023-05-21T00:12:49.101Z,95.20
2023-05-21T00:13:49.090Z,95.40
2023-05-21T00:14:49.085Z,95.36
2023-05-21T00:15:49.067Z,95.56
2023-05-21T00:16:49.127Z,95.46
2023-05-21T00:17:49.102Z,95.06
2023-05-21T00:18:49.114Z,95.36
2023-05-21T00:19:49.023Z,95.36
2023-05-21T00:20:48.987Z,95.76
2023-05-21T00:21:49.009Z,95.46
2023-05-21T00:22:48.963Z,95.26
2023-05-21T00:23:48.974Z,95.36
2023-05-21T00:24:48.947Z,95.15
2023-05-21T00:25:48.931Z,95.26
2023-05-21T00:26:48.915Z,95.36
2023-05-21T00:27:48.915Z,95.36
2023-05-21T00:28:48.879Z,95.26
2023-05-21T00:29:48.877Z,95.56
2023-05-21T00:30:48.859Z,95.15
2023-05-21T00:31:49.014Z,94.85
2023-05-21T00:32:48.828Z,95.06
2023-05-21T00:33:48.836Z,94.65
2023-05-21T00:34:48.815Z,94.55
2023-05-21T00:35:48.781Z,95.06
2023-05-21T00:36:48.788Z,94.75
2023-05-21T00:37:48.785Z,94.75
2023-05-21T00:38:48.788Z,95.26
2023-05-21T00:39:48.728Z,94.95
2023-05-21T00:40:48.726Z,95.36
2023-05-21T00:41:48.757Z,95.36
2023-05-21T00:42:48.680Z,95.36
2023-05-21T00:43:48.733Z,95.06
2023-05-21T00:44:48.677Z,95.56
2023-05-21T00:45:48.768Z,95.06
2023-05-21T00:46:48.655Z,95.56
2023-05-21T00:47:48.699Z,95.46
2023-05-21T00:48:48.611Z,94.95
2023-05-21T00:49:48.601Z,95.26
2023-05-21T00:50:48.577Z,95.06
2023-05-21T00:51:48.568Z,95.06
2023-05-21T00:52:48.568Z,95.26
2023-05-21T00:53:48.553Z,94.85
2023-05-21T00:54:48.536Z,95.06
2023-05-21T00:55:48.502Z,95.46
2023-05-21T00:56:48.482Z,95.46
2023-05-21T00:57:48.491Z,95.26
2023-05-21T00:58:48.461Z,94.65
2023-05-21T00:59:48.456Z,95.46
2023-05-21T01:00:48.452Z,95.06
2023-05-21T01:01:48.501Z,95.15
2023-05-21T01:02:48.488Z,95.26
2023-05-21T01:03:48.514Z,94.85
2023-05-21T01:04:48.401Z,94.85
2023-05-21T01:05:48.369Z,94.85
2023-05-21T01:06:48.368Z,94.24
2023-05-21T01:07:48.369Z,94.35
2023-05-21T01:08:48.325Z,94.45
2023-05-21T01:09:48.315Z,94.75
2023-05-21T01:10:48.293Z,94.75
2023-05-21T01:11:48.301Z,93.94
2023-05-21T01:12:48.253Z,94.55
2023-05-21T01:13:48.262Z,94.55
2023-05-21T01:14:48.241Z,94.85
2023-05-21T01:15:48.223Z,94.55
2023-05-21T01:16:48.353Z,94.65
2023-05-21T01:17:48.273Z,94.04
2023-05-21T01:18:48.264Z,94.35
2023-05-21T01:19:48.257Z,94.35
2023-05-21T01:20:48.210Z,94.45
2023-05-21T01:21:48.157Z,94.55
2023-05-21T01:22:48.136Z,94.04
2023-05-21T01:23:48.121Z,94.45
2023-05-21T01:24:48.116Z,94.65
2023-05-21T01:25:48.608Z,94.55
2023-05-21T01:26:48.089Z,94.35
2023-05-21T01:27:48.064Z,93.94
2023-05-21T01:28:48.072Z,93.94
2023-05-21T01:29:48.041Z,94.24
2023-05-21T01:30:46.395Z,94.04
2023-05-21T01:31:48.027Z,94.55
2023-05-21T01:32:48.124Z,94.35
2023-05-21T01:33:48.055Z,94.65
2023-05-21T01:34:47.964Z,94.04
2023-05-21T01:35:47.971Z,93.54
2023-05-21T01:36:47.937Z,94.55
2023-05-21T01:37:47.940Z,94.24
2023-05-21T01:38:47.909Z,93.94
2023-05-21T01:39:47.915Z,93.74
2023-05-21T01:40:47.901Z,93.74
2023-05-21T01:41:47.876Z,93.94
2023-05-21T01:42:47.875Z,94.04
2023-05-21T01:43:47.850Z,93.23
2023-05-21T01:44:47.845Z,92.63
2023-05-21T01:45:47.832Z,93.03
2023-05-21T01:46:47.413Z,93.23
2023-05-21T01:47:47.861Z,92.42
2023-05-21T01:48:47.780Z,92.93
2023-05-21T01:49:47.786Z,92.32
2023-05-21T01:50:47.767Z,92.72
2023-05-21T01:51:47.731Z,92.63
2023-05-21T01:52:47.739Z,92.22
2023-05-21T01:53:47.711Z,92.26
2023-05-21T01:54:47.744Z,92.26
2023-05-21T01:55:47.684Z,91.96
2023-05-21T01:56:47.672Z,92.06
2023-05-21T01:57:47.661Z,91.96
2023-05-21T01:58:47.626Z,91.46
2023-05-21T01:59:47.644Z,91.46
2023-05-21T02:00:47.610Z,91.75
2023-05-21T02:01:47.627Z,91.25
2023-05-21T02:02:47.699Z,91.46
2023-05-21T02:03:47.680Z,91.15
2023-05-21T02:04:47.575Z,91.35
2023-05-21T02:05:47.563Z,91.05
2023-05-21T02:06:47.025Z,91.15
2023-05-21T02:07:47.525Z,91.15
2023-05-21T02:08:47.007Z,91.25
2023-05-21T02:09:47.489Z,90.54
2023-05-21T02:10:47.485Z,90.75
2023-05-21T02:11:47.454Z,90.44
2023-05-21T02:12:47.480Z,90.03
2023-05-21T02:13:47.452Z,90.03
2023-05-21T02:14:47.422Z,90.24
2023-05-21T02:15:47.400Z,89.73
2023-05-21T02:16:47.436Z,90.14
2023-05-21T02:17:47.410Z,89.73
2023-05-21T02:18:47.416Z,89.73
2023-05-21T02:19:47.371Z,89.73
2023-05-21T02:20:47.333Z,88.82
2023-05-21T02:21:47.333Z,88.72
2023-05-21T02:22:47.345Z,88.42
2023-05-21T02:23:47.308Z,87.95
2023-05-21T02:24:47.282Z,88.05
2023-05-21T02:25:47.292Z,87.51
2023-05-21T02:26:47.256Z,87.60
2023-05-21T02:27:47.260Z,87.51
2023-05-21T02:28:47.232Z,86.53
2023-05-21T02:29:47.287Z,86.73
2023-05-21T02:30:47.190Z,86.94
2023-05-21T02:31:47.201Z,86.63
2023-05-21T02:32:47.171Z,85.72
2023-05-21T02:33:47.172Z,86.22
2023-05-21T02:34:47.160Z,86.53
2023-05-21T02:35:47.128Z,85.62
2023-05-21T02:36:47.140Z,85.42
2023-05-21T02:37:47.163Z,85.31
2023-05-21T02:38:47.081Z,85.11
2023-05-21T02:39:47.079Z,85.01
2023-05-21T02:40:47.066Z,84.61
2023-05-21T02:41:47.057Z,84.70
2023-05-21T02:42:47.052Z,84.20
2023-05-21T02:43:47.038Z,84.10
2023-05-21T02:44:47.017Z,84.70
2023-05-21T02:45:47.041Z,84.30
2023-05-21T02:46:46.997Z,83.80
2023-05-21T02:47:47.023Z,84.64
2023-05-21T02:48:46.962Z,84.04
2023-05-21T02:49:46.943Z,83.63
2023-05-21T02:50:46.922Z,82.52
2023-05-21T02:51:46.923Z,82.42
2023-05-21T02:52:46.908Z,81.81
2023-05-21T02:53:46.897Z,81.91
2023-05-21T02:54:46.873Z,82.42
2023-05-21T02:55:46.860Z,82.11
2023-05-21T02:56:46.864Z,80.39
2023-05-21T02:57:46.841Z,80.29
2023-05-21T02:58:46.815Z,80.19
2023-05-21T02:59:46.855Z,79.31
2023-05-21T03:00:46.793Z,79.21
2023-05-21T03:01:46.835Z,79.00
2023-05-21T03:02:46.808Z,78.40
2023-05-21T03:03:46.789Z,77.48
2023-05-21T03:04:46.794Z,76.57
2023-05-21T03:05:46.731Z,76.87
2023-05-21T03:06:46.706Z,76.57
2023-05-21T03:07:46.686Z,76.47
2023-05-21T03:08:46.681Z,75.79
2023-05-21T03:09:46.685Z,75.59
2023-05-21T03:10:46.660Z,75.09
2023-05-21T03:11:46.643Z,74.27
2023-05-21T03:12:46.618Z,74.17
2023-05-21T03:13:46.624Z,73.77
2023-05-21T03:14:46.653Z,72.75
2023-05-21T03:15:46.596Z,71.84
2023-05-21T03:16:46.589Z,71.13
2023-05-21T03:17:46.588Z,71.33
2023-05-21T03:18:46.548Z,71.26
2023-05-21T03:19:46.536Z,71.26
2023-05-21T03:20:46.524Z,71.06
2023-05-21T03:21:46.504Z,70.35
2023-05-21T03:22:46.512Z,69.64
2023-05-21T03:23:46.481Z,67.91
2023-05-21T03:24:46.479Z,67.91
2023-05-21T03:25:46.436Z,67.91
2023-05-21T03:26:46.424Z,68.52
2023-05-21T03:27:46.408Z,66.90
2023-05-21T03:28:46.417Z,65.51
2023-05-21T03:29:46.397Z,64.79
2023-05-21T03:30:46.528Z,65.20
2023-05-21T03:31:46.418Z,65.51
2023-05-21T03:32:46.414Z,65.30
2023-05-21T03:33:46.338Z,64.49
2023-05-21T03:34:46.327Z,63.88
2023-05-21T03:35:46.304Z,63.68
2023-05-21T03:36:46.282Z,62.66
2023-05-21T03:37:46.303Z,63.37
2023-05-21T03:38:46.255Z,63.78
2023-05-21T03:39:46.272Z,62.76
2023-05-21T03:40:46.238Z,61.75
2023-05-21T03:41:46.226Z,61.85
2023-05-21T03:42:46.218Z,62.16
2023-05-21T03:43:46.206Z,62.36
2023-05-21T03:44:46.235Z,61.14
2023-05-21T03:45:46.230Z,60.63
2023-05-21T03:46:46.153Z,60.13
2023-05-21T03:47:46.209Z,60.94
2023-05-21T03:48:46.172Z,61.34
2023-05-21T03:49:46.126Z,60.63
2023-05-21T03:50:46.089Z,61.24
2023-05-21T03:51:46.085Z,60.63
2023-05-21T03:52:46.106Z,60.94
2023-05-21T03:53:46.064Z,61.14
2023-05-21T03:54:46.046Z,61.34
2023-05-21T03:55:46.038Z,61.75
2023-05-21T03:56:46.027Z,61.65
2023-05-21T03:57:46.025Z,62.26
2023-05-21T03:58:46.002Z,62.05
2023-05-21T03:59:45.989Z,61.34
2023-05-21T04:00:45.973Z,62.43
2023-05-21T04:01:45.969Z,61.52
2023-05-21T04:02:46.015Z,59.89
2023-05-21T04:03:46.019Z,62.23
2023-05-21T04:04:46.005Z,62.63
2023-05-21T04:05:45.912Z,62.74
2023-05-21T04:06:45.901Z,64.56
2023-05-21T04:07:45.878Z,65.58
2023-05-21T04:08:45.860Z,66.97
2023-05-21T04:09:45.826Z,67.07
2023-05-21T04:10:45.852Z,67.27
2023-05-21T04:11:45.817Z,67.38
2023-05-21T04:12:45.806Z,66.46
2023-05-21T04:13:45.801Z,66.36
2023-05-21T04:14:45.770Z,65.85
2023-05-21T04:15:45.771Z,67.07
2023-05-21T04:16:45.729Z,67.58
2023-05-21T04:17:45.780Z,67.78
2023-05-21T04:18:45.828Z,67.58
2023-05-21T04:19:45.697Z,67.27
2023-05-21T04:20:45.699Z,68.76
2023-05-21T04:21:45.684Z,69.47
2023-05-21T04:22:45.669Z,69.17
2023-05-21T04:23:45.648Z,69.17
2023-05-21T04:24:45.632Z,69.98
2023-05-21T04:25:45.628Z,72.01
2023-05-21T04:26:45.604Z,71.50
2023-05-21T04:27:45.589Z,71.80
2023-05-21T04:28:45.590Z,71.50
2023-05-21T04:29:45.067Z,72.48
2023-05-21T04:30:45.541Z,71.80
2023-05-21T04:31:45.577Z,71.97
2023-05-21T04:32:45.532Z,73.39
2023-05-21T04:33:45.503Z,74.21
2023-05-21T04:34:45.503Z,74.71
2023-05-21T04:35:45.507Z,75.12
2023-05-21T04:36:45.475Z,75.89
2023-05-21T04:37:45.462Z,76.80
2023-05-21T04:38:45.432Z,77.01
2023-05-21T04:39:45.421Z,77.92
2023-05-21T04:40:45.426Z,78.69
2023-05-21T04:41:45.401Z,78.79
2023-05-21T04:42:45.380Z,79.50
2023-05-21T04:43:45.370Z,80.01
2023-05-21T04:44:45.379Z,82.34
2023-05-21T04:45:45.362Z,81.63
2023-05-21T04:46:45.381Z,82.24
2023-05-21T04:47:45.366Z,83.21
2023-05-21T04:48:45.305Z,83.61
2023-05-21T04:49:45.281Z,84.93
2023-05-21T04:50:45.300Z,85.24
2023-05-21T04:51:45.281Z,85.50
2023-05-21T04:52:45.249Z,86.10
2023-05-21T04:53:45.251Z,86.91
2023-05-21T04:54:45.265Z,86.91
2023-05-21T04:55:43.501Z,86.91
2023-05-21T04:56:45.211Z,86.82
2023-05-21T04:57:45.196Z,86.61
2023-05-21T04:58:45.174Z,88.33
2023-05-21T04:59:45.194Z,87.62
2023-05-21T05:00:45.689Z,87.58
2023-05-21T05:01:45.125Z,89.10
2023-05-21T05:02:45.207Z,91.08
2023-05-21T05:03:45.141Z,92.05
2023-05-21T05:04:45.103Z,94.83
2023-05-21T05:05:45.066Z,95.90
2023-05-21T05:06:45.086Z,97.47
2023-05-21T05:07:45.045Z,98.78
2023-05-21T05:08:45.027Z,97.97
2023-05-21T05:09:45.039Z,97.56
2023-05-21T05:10:45.014Z,98.02
2023-05-21T05:11:44.995Z,97.11
2023-05-21T05:12:45.000Z,97.51
2023-05-21T05:13:44.989Z,97.97
2023-05-21T05:14:44.960Z,98.27
2023-05-21T05:15:45.535Z,98.68
2023-05-21T05:16:44.975Z,98.78
2023-05-21T05:17:44.957Z,98.33
2023-05-21T05:18:44.956Z,97.91
2023-05-21T05:19:44.879Z,97.01
2023-05-21T05:20:44.881Z,96.60
2023-05-21T05:21:44.906Z,96.25
2023-05-21T05:22:44.841Z,96.25
2023-05-21T05:23:44.850Z,95.34
2023-05-21T05:24:44.816Z,95.74
2023-05-21T05:25:44.799Z,95.94
2023-05-21T05:26:44.783Z,95.14
2023-05-21T05:27:44.786Z,95.43
2023-05-21T05:28:44.772Z,95.74
2023-05-21T05:29:44.753Z,95.54
2023-05-21T05:30:44.776Z,95.64
2023-05-21T05:31:44.723Z,95.94
2023-05-21T05:32:44.717Z,96.04
2023-05-21T05:33:44.689Z,95.43
2023-05-21T05:34:44.692Z,96.14
2023-05-21T05:35:44.649Z,95.84
2023-05-21T05:36:44.650Z,95.64
2023-05-21T05:37:44.655Z,95.94
2023-05-21T05:38:44.638Z,96.40
2023-05-21T05:39:44.600Z,96.20
2023-05-21T05:40:44.592Z,95.79
2023-05-21T05:41:44.565Z,96.04
2023-05-21T05:42:44.585Z,96.14
2023-05-21T05:43:44.550Z,96.14
2023-05-21T05:44:44.535Z,96.04
2023-05-21T05:45:44.510Z,96.50
2023-05-21T05:46:44.076Z,96.70
2023-05-21T05:47:44.519Z,96.60
2023-05-21T05:48:44.466Z,96.60
2023-05-21T05:49:44.461Z,97.11
2023-05-21T05:50:44.443Z,95.94
2023-05-21T05:51:44.447Z,97.01
2023-05-21T05:52:43.958Z,96.70
2023-05-21T05:53:43.003Z,97.71
2023-05-21T05:54:44.405Z,96.86
2023-05-21T05:55:44.381Z,97.67
2023-05-21T05:56:44.387Z,98.27
2023-05-21T05:57:45.199Z,98.13
2023-05-21T05:58:43.182Z,98.73
2023-05-21T05:59:42.833Z,98.63
2023-05-21T06:00:44.341Z,98.93
2023-05-21T06:01:43.084Z,98.22
2023-05-21T06:02:44.356Z,98.47
2023-05-21T06:03:44.345Z,98.68
2023-05-21T06:04:44.281Z,98.27
2023-05-21T06:05:44.313Z,97.97
2023-05-21T06:06:44.233Z,98.78
2023-05-21T06:07:44.239Z,99.04
2023-05-21T06:08:44.193Z,98.83
2023-05-21T06:09:44.185Z,99.24
2023-05-21T06:10:44.188Z,98.63
2023-05-21T06:11:44.163Z,99.24
2023-05-21T06:12:44.166Z,99.44
2023-05-21T06:13:44.150Z,99.13
2023-05-21T06:14:45.231Z,99.33
2023-05-21T06:15:44.146Z,99.94
2023-05-21T06:16:44.098Z,99.44
2023-05-21T06:17:44.096Z,99.13
2023-05-21T06:18:44.155Z,99.04
2023-05-21T06:19:44.059Z,98.73
2023-05-21T06:20:44.078Z,98.99
2023-05-21T06:21:44.058Z,99.39
2023-05-21T06:22:44.032Z,99.99
2023-05-21T06:23:43.988Z,99.99
2023-05-21T06:24:43.997Z,99.99
2023-05-21T06:25:43.980Z,99.69
2023-05-21T06:26:43.970Z,99.49
2023-05-21T06:27:43.947Z,99.08
2023-05-21T06:28:43.935Z,99.49
2023-05-21T06:29:43.919Z,99.59
2023-05-21T06:30:43.916Z,99.39
2023-05-21T06:31:43.881Z,99.69
2023-05-21T06:32:43.937Z,99.04
2023-05-21T06:33:43.986Z,99.29
2023-05-21T06:34:43.870Z,99.59
2023-05-21T06:35:43.876Z,99.49
2023-05-21T06:36:43.826Z,98.79
2023-05-21T06:37:43.804Z,98.94
2023-05-21T06:38:43.809Z,99.14
2023-05-21T06:39:43.782Z,99.44
2023-05-21T06:40:43.767Z,99.95
2023-05-21T06:41:43.761Z,99.74
2023-05-21T06:42:43.744Z,99.95
2023-05-21T06:43:43.735Z,99.44
2023-05-21T06:44:43.710Z,99.95
2023-05-21T06:45:43.719Z,99.40
2023-05-21T06:46:43.677Z,99.99
2023-05-21T06:47:43.771Z,99.99
2023-05-21T06:48:43.653Z,99.95
2023-05-21T06:49:43.640Z,99.99
2023-05-21T06:50:43.625Z,99.99
2023-05-21T06:51:43.637Z,99.99
2023-05-21T06:52:43.611Z,99.99
2023-05-21T06:53:43.583Z,99.99
2023-05-21T06:54:43.584Z,99.99
2023-05-21T06:55:41.594Z,99.54
2023-05-21T06:56:43.538Z,99.85
2023-05-21T06:57:43.532Z,99.85
2023-05-21T06:58:43.499Z,99.99
2023-05-21T06:59:43.504Z,99.99
2023-05-21T07:00:43.494Z,99.99
2023-05-21T07:01:43.528Z,99.99
2023-05-21T07:02:43.535Z,99.99
2023-05-21T07:03:43.519Z,99.99
2023-05-21T07:04:43.457Z,99.99
2023-05-21T07:05:43.404Z,99.99
2023-05-21T07:06:43.404Z,99.99
2023-05-21T07:07:43.409Z,99.99
2023-05-21T07:08:43.377Z,99.99
2023-05-21T07:09:43.363Z,99.99
2023-05-21T07:10:43.342Z,99.99
2023-05-21T07:11:43.344Z,99.99
2023-05-21T07:12:43.328Z,99.52
2023-05-21T07:13:43.355Z,96.80
2023-05-21T07:14:43.297Z,96.60
2023-05-21T07:15:43.302Z,95.86
2023-05-21T07:16:43.361Z,94.85
2023-05-21T07:17:43.285Z,93.74
2023-05-21T07:18:43.240Z,92.90
2023-05-21T07:19:43.237Z,89.66
2023-05-21T07:20:43.212Z,82.37
2023-05-21T07:21:43.201Z,76.89
2023-05-21T07:22:43.173Z,76.56
2023-05-21T07:23:43.183Z,73.25
2023-05-21T07:24:43.139Z,70.29
2023-05-21T07:25:43.144Z,68.36
2023-05-21T07:26:43.140Z,67.33
2023-05-21T07:27:43.138Z,65.80
2023-05-21T07:28:43.102Z,63.65
2023-05-21T07:29:43.100Z,62.40
2023-05-21T07:30:43.130Z,61.17
2023-05-21T07:31:43.076Z,60.08
2023-05-21T07:32:43.078Z,61.24
2023-05-21T07:33:43.060Z,58.87
2023-05-21T07:34:43.027Z,57.06
2023-05-21T07:35:43.025Z,57.48
2023-05-21T07:36:42.984Z,57.60
2023-05-21T07:37:43.038Z,58.03
2023-05-21T07:38:42.971Z,58.62
2023-05-21T07:39:42.962Z,57.93
2023-05-21T07:40:42.969Z,60.35
2023-05-21T07:41:42.925Z,58.40
2023-05-21T07:42:42.899Z,57.18
2023-05-21T07:43:42.899Z,58.00
2023-05-21T07:44:42.896Z,57.41
2023-05-21T07:45:42.885Z,58.80
2023-05-21T07:46:42.944Z,59.52
2023-05-21T07:47:42.860Z,58.50
2023-05-21T07:48:42.825Z,59.03
2023-05-21T07:49:42.830Z,59.09
2023-05-21T07:50:42.806Z,59.72
2023-05-21T07:51:42.792Z,59.12
2023-05-21T07:52:42.803Z,59.75
2023-05-21T07:53:42.758Z,60.05
2023-05-21T07:54:42.759Z,58.90
2023-05-21T07:55:42.728Z,58.04
2023-05-21T07:56:42.709Z,56.73
2023-05-21T07:57:42.730Z,56.30
2023-05-21T07:58:42.701Z,56.77
2023-05-21T07:59:42.703Z,55.56
2023-05-21T08:00:42.678Z,54.07
2023-05-21T08:01:42.657Z,55.32
2023-05-21T08:02:42.716Z,55.71
2023-05-21T08:03:42.761Z,56.26
2023-05-21T08:04:42.643Z,56.56
2023-05-21T08:05:42.589Z,56.53
2023-05-21T08:06:42.112Z,57.41
2023-05-21T08:07:42.559Z,57.93
2023-05-21T08:08:42.559Z,59.05
2023-05-21T08:09:42.546Z,59.05
2023-05-21T08:10:42.540Z,59.58
2023-05-21T08:11:42.532Z,59.62
2023-05-21T08:12:42.522Z,59.95
2023-05-21T08:13:42.507Z,59.95
2023-05-21T08:14:42.478Z,59.88
2023-05-21T08:15:40.755Z,61.40
2023-05-21T08:16:42.603Z,61.90
2023-05-21T08:17:42.553Z,61.87
2023-05-21T08:18:42.469Z,61.99
2023-05-21T08:19:42.436Z,62.37
2023-05-21T08:20:42.483Z,61.37
2023-05-21T08:21:42.412Z,61.37
2023-05-21T08:22:40.561Z,61.37
2023-05-21T08:23:42.368Z,61.37
2023-05-21T08:24:42.380Z,61.17
2023-05-21T08:25:42.382Z,61.57
2023-05-21T08:26:45.489Z,61.67
2023-05-21T08:27:41.645Z,62.07
2023-05-21T08:28:42.386Z,61.27
2023-05-21T08:29:42.324Z,61.37
2023-05-21T08:30:42.307Z,61.63
2023-05-21T08:31:42.337Z,62.42
2023-05-21T08:32:42.312Z,63.22
2023-05-21T08:33:42.254Z,63.52
2023-05-21T08:34:42.230Z,62.82
2023-05-21T08:35:42.209Z,63.35
2023-05-21T08:36:41.833Z,63.55
2023-05-21T08:37:42.207Z,65.11
2023-05-21T08:38:42.169Z,62.23
2023-05-21T08:39:42.152Z,62.49
2023-05-21T08:40:42.129Z,62.32
2023-05-21T08:41:42.146Z,63.42
2023-05-21T08:42:42.119Z,62.92
2023-05-21T08:43:42.152Z,64.15
2023-05-21T08:44:42.087Z,64.12
2023-05-21T08:45:42.090Z,63.42
2023-05-21T08:46:42.056Z,63.62
2023-05-21T08:47:42.071Z,64.54
2023-05-21T08:48:42.018Z,65.08
2023-05-21T08:49:42.011Z,66.20
2023-05-21T08:50:42.097Z,65.94
2023-05-21T08:51:42.030Z,64.54
2023-05-21T08:52:41.982Z,65.57
2023-05-21T08:53:41.961Z,66.90
2023-05-21T08:54:41.968Z,67.00
2023-05-21T08:55:41.991Z,66.60
2023-05-21T08:56:41.929Z,66.20
2023-05-21T08:57:41.924Z,65.80
2023-05-21T08:58:41.905Z,66.40
2023-05-21T08:59:41.465Z,67.47
2023-05-21T09:00:41.898Z,65.47
2023-05-21T09:01:40.956Z,66.00
2023-05-21T09:02:41.893Z,64.58
2023-05-21T09:03:41.906Z,64.12
2023-05-21T09:04:41.912Z,63.52
2023-05-21T09:05:41.803Z,63.19
2023-05-21T09:06:41.827Z,62.69
2023-05-21T09:07:41.787Z,62.07
2023-05-21T09:08:40.066Z,61.07
2023-05-21T09:09:41.992Z,61.37
2023-05-21T09:10:41.744Z,61.34
2023-05-21T09:11:41.735Z,60.55
2023-05-21T09:12:41.821Z,61.44
2023-05-21T09:13:41.704Z,59.85
2023-05-21T09:14:41.682Z,62.16
2023-05-21T09:15:41.669Z,61.54
2023-05-21T09:16:41.691Z,60.61
2023-05-21T09:17:41.690Z,61.08
2023-05-21T09:18:39.701Z,59.42
2023-05-21T09:19:41.500Z,59.82
2023-05-21T09:20:41.609Z,60.02
2023-05-21T09:21:41.582Z,60.22
2023-05-21T09:22:41.603Z,60.02
2023-05-21T09:23:41.588Z,60.42
2023-05-21T09:24:41.593Z,58.87
2023-05-21T09:25:41.566Z,58.84
2023-05-21T09:26:41.641Z,58.42
2023-05-21T09:27:41.577Z,56.38
2023-05-21T09:28:41.505Z,55.56
2023-05-21T09:29:41.581Z,55.53
2023-05-21T09:30:41.733Z,55.21
2023-05-21T09:31:41.499Z,54.81
2023-05-21T09:32:41.493Z,55.18
2023-05-21T09:33:41.465Z,53.97
2023-05-21T09:34:41.420Z,54.66
2023-05-21T09:35:41.393Z,52.86
2023-05-21T09:36:41.425Z,53.42
2023-05-21T09:37:41.400Z,52.39
2023-05-21T09:38:41.378Z,51.77
2023-05-21T09:39:41.350Z,50.16
2023-05-21T09:40:41.351Z,49.55
2023-05-21T09:41:41.699Z,49.04
2023-05-21T09:42:40.652Z,47.88
2023-05-21T09:43:41.326Z,47.74
2023-05-21T09:44:41.266Z,46.44
2023-05-21T09:45:41.460Z,46.22
2023-05-21T09:46:41.794Z,45.65
2023-05-21T09:47:41.267Z,46.70
2023-05-21T09:48:41.231Z,47.00
2023-05-21T09:49:41.235Z,47.02
2023-05-21T09:50:41.390Z,47.78
2023-05-21T09:51:41.185Z,47.17
2023-05-21T09:52:42.292Z,46.41
2023-05-21T09:53:41.169Z,46.48
2023-05-21T09:54:41.171Z,46.36
2023-05-21T09:55:41.191Z,44.33
2023-05-21T09:56:41.134Z,44.41
2023-05-21T09:57:41.154Z,45.29
2023-05-21T09:58:41.106Z,44.45
2023-05-21T09:59:41.129Z,45.12
2023-05-21T10:00:41.113Z,45.65
2023-05-21T10:01:41.206Z,47.41
2023-05-21T10:02:41.109Z,47.41
2023-05-21T10:03:41.095Z,48.00
2023-05-21T10:04:41.091Z,49.26
2023-05-21T10:05:41.017Z,49.99
2023-05-21T10:06:41.019Z,50.54
2023-05-21T10:07:40.989Z,50.98
2023-05-21T10:08:40.999Z,52.39
2023-05-21T10:09:40.961Z,53.33
2023-05-21T10:10:40.457Z,54.24
2023-05-21T10:11:40.951Z,53.67
2023-05-21T10:12:40.917Z,54.27
2023-05-21T10:13:40.914Z,54.77
2023-05-21T10:14:40.893Z,54.07
2023-05-21T10:15:40.897Z,54.64
2023-05-21T10:16:40.962Z,54.02
2023-05-21T10:17:40.898Z,53.11
2023-05-21T10:18:40.865Z,52.26
2023-05-21T10:19:40.855Z,50.81
2023-05-21T10:20:40.837Z,49.92
2023-05-21T10:21:40.818Z,50.83
2023-05-21T10:22:40.797Z,50.29
2023-05-21T10:23:40.791Z,50.38
2023-05-21T10:24:38.942Z,48.79
2023-05-21T10:25:40.779Z,48.81
2023-05-21T10:26:40.836Z,50.02
2023-05-21T10:27:40.730Z,50.83
2023-05-21T10:28:39.062Z,50.56
2023-05-21T10:29:40.762Z,51.94
2023-05-21T10:30:39.526Z,51.32
2023-05-21T10:31:40.785Z,49.90
2023-05-21T10:32:40.860Z,49.04
2023-05-21T10:33:40.652Z,47.22
2023-05-21T10:34:40.661Z,46.48
2023-05-21T10:35:40.647Z,45.18
2023-05-21T10:36:40.609Z,44.55
2023-05-21T10:37:40.609Z,44.35
2023-05-21T10:38:40.586Z,43.45
2023-05-21T10:39:40.632Z,46.22
2023-05-21T10:40:40.583Z,44.35
2023-05-21T10:41:40.552Z,44.08
2023-05-21T10:42:40.571Z,43.98
2023-05-21T10:43:40.555Z,44.89
2023-05-21T10:44:40.528Z,45.36
2023-05-21T10:45:40.570Z,44.23
2023-05-21T10:46:40.491Z,42.94
2023-05-21T10:47:40.537Z,42.70
2023-05-21T10:48:40.498Z,43.09
2023-05-21T10:49:40.477Z,42.84
2023-05-21T10:50:40.489Z,43.15
2023-05-21T10:51:40.436Z,43.86
2023-05-21T10:52:40.446Z,43.47
2023-05-21T10:53:40.417Z,44.74
2023-05-21T10:54:40.398Z,44.37
2023-05-21T10:55:40.411Z,44.22
2023-05-21T10:56:40.378Z,45.27
2023-05-21T10:57:40.378Z,47.63
2023-05-21T10:58:40.368Z,46.23
2023-05-21T10:59:40.353Z,46.03
2023-05-21T11:00:40.341Z,45.35
2023-05-21T11:01:40.421Z,45.90
2023-05-21T11:02:40.408Z,46.12
2023-05-21T11:03:39.473Z,46.17
2023-05-21T11:04:40.310Z,46.96
2023-05-21T11:05:40.462Z,47.10
2023-05-21T11:06:40.279Z,48.83
2023-05-21T11:07:40.263Z,48.61
2023-05-21T11:08:40.242Z,48.80
2023-05-21T11:09:40.220Z,48.93
2023-05-21T11:10:40.296Z,49.22
2023-05-21T11:11:40.182Z,49.40
2023-05-21T11:12:40.180Z,50.09
2023-05-21T11:13:40.165Z,50.36
2023-05-21T11:14:40.329Z,49.84
2023-05-21T11:15:39.638Z,50.63
2023-05-21T11:16:40.202Z,49.15
2023-05-21T11:17:40.165Z,49.57
2023-05-21T11:18:40.090Z,50.29
2023-05-21T11:19:40.195Z,50.29
2023-05-21T11:20:40.067Z,50.09
2023-05-21T11:21:40.075Z,50.71
2023-05-21T11:22:40.061Z,50.38
2023-05-21T11:23:40.039Z,50.29
2023-05-21T11:24:40.017Z,49.10
2023-05-21T11:25:39.998Z,49.44
2023-05-21T11:26:39.999Z,49.94
2023-05-21T11:27:40.055Z,50.93
2023-05-21T11:28:39.964Z,50.48
2023-05-21T11:29:39.963Z,50.38
2023-05-21T11:30:41.115Z,50.60
2023-05-21T11:31:40.454Z,50.31
2023-05-21T11:32:40.032Z,51.20
2023-05-21T11:33:39.899Z,50.81
2023-05-21T11:34:39.900Z,50.88
2023-05-21T11:35:39.883Z,50.38
2023-05-21T11:36:39.851Z,50.56
2023-05-21T11:37:39.839Z,50.56
2023-05-21T11:38:39.843Z,49.57
2023-05-21T11:39:40.101Z,50.16
2023-05-21T11:40:38.612Z,50.48
2023-05-21T11:41:39.805Z,50.78
2023-05-21T11:42:39.787Z,50.26
2023-05-21T11:43:39.762Z,50.18
2023-05-21T11:44:39.752Z,50.09
2023-05-21T11:45:39.744Z,50.18
2023-05-21T11:46:39.775Z,50.29
2023-05-21T11:47:39.775Z,50.09
2023-05-21T11:48:39.704Z,50.16
2023-05-21T11:49:39.705Z,50.46
2023-05-21T11:50:39.892Z,50.36
2023-05-21T11:51:39.667Z,51.05
2023-05-21T11:52:39.642Z,50.93
2023-05-21T11:53:39.632Z,50.41
2023-05-21T11:54:39.641Z,49.94
2023-05-21T11:55:39.641Z,50.01
2023-05-21T11:56:39.600Z,49.72
2023-05-21T11:57:39.566Z,49.30
2023-05-21T11:58:39.563Z,48.46
2023-05-21T11:59:39.566Z,47.57
2023-05-21T12:00:39.531Z,49.15
2023-05-21T12:01:39.559Z,48.02
2023-05-21T12:02:39.775Z,47.63
2023-05-21T12:03:39.718Z,48.07
2023-05-21T12:04:39.498Z,48.86
2023-05-21T12:05:37.663Z,48.36
2023-05-21T12:06:39.461Z,47.65
2023-05-21T12:07:39.459Z,47.85
2023-05-21T12:08:39.440Z,48.44
2023-05-21T12:09:39.463Z,48.63
2023-05-21T12:10:39.415Z,48.41
2023-05-21T12:11:39.395Z,48.75
2023-05-21T12:12:53.357Z,50.02
2023-05-21T12:13:40.386Z,48.41
2023-05-21T12:14:39.353Z,48.12
2023-05-21T12:15:39.343Z,48.10
2023-05-21T12:16:39.397Z,48.32
2023-05-21T12:17:39.373Z,48.17
2023-05-21T12:18:39.324Z,47.09
2023-05-21T12:19:39.285Z,47.41
2023-05-21T12:20:39.305Z,48.12
2023-05-21T12:21:39.266Z,49.03
2023-05-21T12:22:39.278Z,48.75
2023-05-21T12:23:39.259Z,48.61
2023-05-21T12:24:39.226Z,48.88
2023-05-21T12:25:39.231Z,48.44
2023-05-21T12:26:39.200Z,47.68
2023-05-21T12:27:38.812Z,48.76
2023-05-21T12:28:39.190Z,47.58
2023-05-21T12:29:39.158Z,48.61
2023-05-21T12:30:39.233Z,48.71
2023-05-21T12:31:39.179Z,48.29
2023-05-21T12:32:39.147Z,49.38
2023-05-21T12:33:39.122Z,48.88
2023-05-21T12:34:39.088Z,48.69
2023-05-21T12:35:39.140Z,48.47
2023-05-21T12:36:39.054Z,48.14
2023-05-21T12:37:39.059Z,47.53
2023-05-21T12:38:39.035Z,47.51
2023-05-21T12:39:39.022Z,47.29
2023-05-21T12:40:40.064Z,46.38
2023-05-21T12:41:39.024Z,46.28
2023-05-21T12:42:39.027Z,45.75
2023-05-21T12:43:38.980Z,45.57
2023-05-21T12:44:38.975Z,45.62
2023-05-21T12:45:38.963Z,46.80
2023-05-21T12:46:39.034Z,46.38
2023-05-21T12:47:39.812Z,46.78
2023-05-21T12:48:38.914Z,45.89
2023-05-21T12:49:38.925Z,47.07
2023-05-21T12:50:39.107Z,47.34
2023-05-21T12:51:38.896Z,48.57
2023-05-21T12:52:38.869Z,48.05